createdAt,value
2023-01-18T00:01:13.186Z,96472.16
2023-01-18T00:03:40.152Z,96474.06
2023-01-18T00:06:08.993Z,96477.44
2023-01-18T00:08:38.591Z,96472.56
2023-01-18T00:11:08.497Z,96482.09
2023-01-18T00:13:35.472Z,96481.91
2023-01-18T00:16:07.309Z,96474.50
2023-01-18T00:18:36.041Z,96479.41
2023-01-18T00:21:05.061Z,96472.19
2023-01-18T00:23:31.826Z,96465.94
2023-01-18T00:26:10.225Z,96477.91
2023-01-18T00:28:38.428Z,96479.94
2023-01-18T00:31:16.529Z,96475.09
2023-01-18T00:33:44.477Z,96481.50
2023-01-18T00:36:12.059Z,96480.16
2023-01-18T00:38:38.765Z,96477.75
2023-01-18T00:41:05.509Z,96477.69
2023-01-18T00:43:41.249Z,96479.78
2023-01-18T00:46:14.608Z,96478.13
2023-01-18T00:48:42.542Z,96472.63
2023-01-18T00:51:12.439Z,96474.19
2023-01-18T00:53:40.233Z,96474.69
2023-01-18T00:56:12.229Z,96482.91
2023-01-18T00:58:38.949Z,96478.69
2023-01-18T01:01:06.946Z,96476.97
2023-01-18T01:03:54.138Z,96474.69
2023-01-18T01:06:45.311Z,96476.16
2023-01-18T01:09:18.288Z,96478.03
2023-01-18T01:12:05.285Z,96476.84
2023-01-18T01:14:53.317Z,96467.16
2023-01-18T01:17:39.115Z,96464.13
2023-01-18T01:20:25.287Z,96467.66
2023-01-18T01:23:10.453Z,96473.50
2023-01-18T01:25:56.484Z,96473.34
2023-01-18T01:28:23.192Z,96469.72
2023-01-18T01:30:49.908Z,96479.59
2023-01-18T01:33:17.965Z,96476.56
2023-01-18T01:35:44.660Z,96477.94
2023-01-18T01:38:11.294Z,96481.78
2023-01-18T01:40:37.901Z,96478.38
2023-01-18T01:43:04.511Z,96466.09
2023-01-18T01:45:32.002Z,96474.16
2023-01-18T01:47:59.391Z,96469.53
2023-01-18T01:50:37.209Z,96468.88
2023-01-18T01:53:04.235Z,96468.94
2023-01-18T01:55:37.812Z,96468.06
2023-01-18T01:58:07.149Z,96467.59
2023-01-18T02:00:34.571Z,96458.16
2023-01-18T02:03:05.460Z,96461.78
2023-01-18T02:05:35.810Z,96459.50
2023-01-18T02:08:03.447Z,96462.09
2023-01-18T02:10:30.406Z,96451.53
2023-01-18T02:12:59.641Z,96461.25
2023-01-18T02:15:48.791Z,96456.59
2023-01-18T02:18:21.204Z,96463.75
2023-01-18T02:21:09.517Z,96460.44
2023-01-18T02:24:12.083Z,96462.78
2023-01-18T02:27:00.405Z,96459.81
2023-01-18T02:29:54.581Z,96448.66
2023-01-18T02:32:36.082Z,96455.97
2023-01-18T02:35:10.971Z,96459.44
2023-01-18T02:37:44.495Z,96459.72
2023-01-18T02:40:32.206Z,96456.78
2023-01-18T02:43:22.009Z,96459.81
2023-01-18T02:46:08.696Z,96456.72
2023-01-18T02:48:42.004Z,96462.38
2023-01-18T02:51:09.613Z,96457.50
2023-01-18T02:53:42.532Z,96452.41
2023-01-18T02:56:21.838Z,96443.59
2023-01-18T02:59:15.397Z,96453.81
2023-01-18T03:02:19.372Z,96455.22
2023-01-18T03:04:55.208Z,96462.94
2023-01-18T03:07:27.123Z,96460.53
2023-01-18T03:09:55.274Z,96464.91
2023-01-18T03:12:27.240Z,96462.63
2023-01-18T03:15:13.973Z,96462.63
2023-01-18T03:17:45.072Z,96469.28
2023-01-18T03:20:15.615Z,96472.88
2023-01-18T03:23:09.752Z,96471.16
2023-01-18T03:25:42.790Z,96460.81
2023-01-18T03:28:34.916Z,96468.88
2023-01-18T03:31:24.183Z,96458.69
2023-01-18T03:33:58.020Z,96465.28
2023-01-18T03:36:28.707Z,96469.66
2023-01-18T03:39:05.205Z,96472.19
2023-01-18T03:41:36.651Z,96470.84
2023-01-18T03:44:10.139Z,96471.28
2023-01-18T03:46:38.123Z,96472.53
2023-01-18T03:49:05.939Z,96477.75
2023-01-18T03:51:32.605Z,96471.13
2023-01-18T03:54:22.455Z,96469.78
2023-01-18T03:56:54.547Z,96473.91
2023-01-18T03:59:21.648Z,96476.31
2023-01-18T04:01:49.217Z,96465.22
2023-01-18T04:04:15.831Z,96473.81
2023-01-18T04:06:42.772Z,96477.50
2023-01-18T04:09:09.444Z,96476.38
2023-01-18T04:11:36.156Z,96471.97
2023-01-18T04:14:02.741Z,96472.44
2023-01-18T04:16:29.485Z,96473.47
2023-01-18T04:18:56.111Z,96478.13
2023-01-18T04:21:22.706Z,96473.91
2023-01-18T04:23:49.355Z,96484.94
2023-01-18T04:26:16.771Z,96478.28
2023-01-18T04:28:43.538Z,96473.19
2023-01-18T04:31:10.257Z,96470.88
2023-01-18T04:33:36.884Z,96464.69
2023-01-18T04:36:03.825Z,96471.03
2023-01-18T04:38:30.471Z,96469.97
2023-01-18T04:41:02.955Z,96465.91
2023-01-18T04:43:29.947Z,96474.56
2023-01-18T04:45:57.301Z,96486.31
2023-01-18T04:48:24.492Z,96493.25
2023-01-18T04:50:52.127Z,96493.06
2023-01-18T04:53:19.486Z,96491.38
2023-01-18T04:55:46.310Z,96483.94
2023-01-18T04:58:13.211Z,96485.75
2023-01-18T05:00:40.078Z,96495.97
2023-01-18T05:03:11.296Z,96494.53
2023-01-18T05:05:38.166Z,96504.50
2023-01-18T05:08:04.734Z,96516.25
2023-01-18T05:10:33.516Z,96523.44
2023-01-18T05:13:00.561Z,96518.28
2023-01-18T05:15:27.561Z,96516.16
2023-01-18T05:17:54.187Z,96517.66
2023-01-18T05:20:20.786Z,96523.03
2023-01-18T05:22:47.373Z,96520.66
2023-01-18T05:25:14.065Z,96516.09
2023-01-18T05:27:40.653Z,96521.56
2023-01-18T05:30:08.862Z,96520.13
2023-01-18T05:32:35.572Z,96526.84
2023-01-18T05:35:05.727Z,96520.75
2023-01-18T05:37:32.377Z,96526.44
2023-01-18T05:39:59.301Z,96524.94
2023-01-18T05:42:25.968Z,96524.75
2023-01-18T05:44:52.597Z,96538.63
2023-01-18T05:47:19.215Z,96540.84
2023-01-18T05:49:45.792Z,96541.72
2023-01-18T05:52:12.560Z,96536.59
2023-01-18T05:54:39.143Z,96535.88
2023-01-18T05:57:05.718Z,96536.19
2023-01-18T05:59:32.348Z,96533.38
2023-01-18T06:01:59.268Z,96535.56
2023-01-18T06:04:25.922Z,96536.03
2023-01-18T06:06:52.622Z,96530.06
2023-01-18T06:09:19.225Z,96537.34
2023-01-18T06:11:45.809Z,96533.72
2023-01-18T06:14:12.647Z,96540.34
2023-01-18T06:16:39.348Z,96540.03
2023-01-18T06:19:06.052Z,96539.56
2023-01-18T06:21:32.752Z,96537.44
2023-01-18T06:23:59.346Z,96537.00
2023-01-18T06:26:26.050Z,96539.19
2023-01-18T06:28:53.529Z,96534.06
2023-01-18T06:31:20.244Z,96538.81
2023-01-18T06:33:46.971Z,96536.50
2023-01-18T06:36:13.616Z,96544.63
2023-01-18T06:38:41.371Z,96545.25
2023-01-18T06:41:09.156Z,96547.09
2023-01-18T06:43:35.841Z,96547.75
2023-01-18T06:46:02.942Z,96554.19
2023-01-18T06:48:29.944Z,96549.47
2023-01-18T06:50:57.229Z,96556.44
2023-01-18T06:53:24.566Z,96558.03
2023-01-18T06:55:58.665Z,96567.69
2023-01-18T06:58:30.063Z,96564.38
2023-01-18T07:00:58.642Z,96573.13
2023-01-18T07:03:26.526Z,96568.06
2023-01-18T07:05:54.337Z,96577.78
2023-01-18T07:08:21.046Z,96572.50
2023-01-18T07:10:52.562Z,96569.28
2023-01-18T07:13:20.351Z,96577.34
2023-01-18T07:15:54.198Z,96579.09
2023-01-18T07:18:20.880Z,96577.72
2023-01-18T07:20:47.463Z,96581.66
2023-01-18T07:23:14.152Z,96585.66
2023-01-18T07:25:40.738Z,96586.19
2023-01-18T07:28:07.430Z,96588.31
2023-01-18T07:30:34.038Z,96585.88
2023-01-18T07:33:01.006Z,96588.59
2023-01-18T07:35:27.855Z,96590.63
2023-01-18T07:37:54.477Z,96588.63
2023-01-18T07:40:21.980Z,96593.81
2023-01-18T07:42:49.980Z,96591.28
2023-01-18T07:45:16.666Z,96601.72
2023-01-18T07:47:46.151Z,96605.81
2023-01-18T07:50:14.090Z,96608.91
2023-01-18T07:52:40.744Z,96612.63
2023-01-18T07:55:07.697Z,96616.38
2023-01-18T07:57:34.272Z,96616.16
2023-01-18T08:00:01.015Z,96619.94
2023-01-18T08:02:27.727Z,96620.53
2023-01-18T08:04:54.345Z,96614.94
2023-01-18T08:07:21.068Z,96619.19
2023-01-18T08:09:47.729Z,96628.84
2023-01-18T08:12:18.045Z,96632.69
2023-01-18T08:14:46.020Z,96629.97
2023-01-18T08:17:12.792Z,96640.06
2023-01-18T08:19:39.513Z,96640.38
2023-01-18T08:22:07.837Z,96639.84
2023-01-18T08:24:34.425Z,96647.09
2023-01-18T08:27:01.037Z,96651.75
2023-01-18T08:29:27.663Z,96654.34
2023-01-18T08:31:54.344Z,96653.66
2023-01-18T08:34:21.893Z,96654.72
2023-01-18T08:36:50.920Z,96656.03
2023-01-18T08:39:17.532Z,96658.78
2023-01-18T08:41:44.836Z,96649.88
2023-01-18T08:44:11.603Z,96651.69
2023-01-18T08:46:39.339Z,96659.16
2023-01-18T08:49:06.435Z,96654.22
2023-01-18T08:51:33.160Z,96658.66
2023-01-18T08:54:00.125Z,96667.91
2023-01-18T08:56:27.466Z,96671.09
2023-01-18T08:58:54.511Z,96678.03
2023-01-18T09:01:23.247Z,96673.66
2023-01-18T09:03:50.612Z,96676.94
2023-01-18T09:06:17.561Z,96681.22
2023-01-18T09:08:47.777Z,96683.31
2023-01-18T09:11:15.933Z,96681.22
2023-01-18T09:13:59.356Z,96682.56
2023-01-18T09:16:27.573Z,96692.31
2023-01-18T09:18:56.156Z,96694.00
2023-01-18T09:21:23.083Z,96692.78
2023-01-18T09:23:50.818Z,96699.19
2023-01-18T09:26:20.206Z,96705.28
2023-01-18T09:28:52.519Z,96703.69
2023-01-18T09:31:21.064Z,96706.00
2023-01-18T09:33:53.278Z,96710.50
2023-01-18T09:36:23.907Z,96707.94
2023-01-18T09:38:50.623Z,96713.81
2023-01-18T09:41:33.122Z,96710.91
2023-01-18T09:44:10.682Z,96714.88
2023-01-18T09:46:42.028Z,96712.53
2023-01-18T09:53:55.172Z,96725.69
2023-01-18T09:56:27.970Z,96724.31
2023-01-18T09:58:57.607Z,96722.72
2023-01-18T10:01:32.068Z,96725.47
2023-01-18T10:04:17.190Z,96716.75
2023-01-18T10:06:58.449Z,96720.75
2023-01-18T10:09:56.824Z,96713.78
2023-01-18T10:12:32.909Z,96722.88
2023-01-18T10:15:12.116Z,96722.91
2023-01-18T10:17:42.174Z,96723.63
2023-01-18T10:20:47.444Z,96719.16
2023-01-18T10:23:41.392Z,96726.19
2023-01-18T10:26:20.089Z,96725.72
2023-01-18T10:29:18.285Z,96723.81
2023-01-18T10:31:52.220Z,96725.50
2023-01-18T10:34:24.357Z,96722.41
2023-01-18T10:36:54.317Z,96725.88
2023-01-18T10:39:41.852Z,96729.72
2023-01-18T10:42:41.269Z,96722.72
2023-01-18T10:45:29.081Z,96725.34
2023-01-18T10:47:57.661Z,96738.13
2023-01-18T10:50:40.146Z,96740.75
2023-01-18T10:53:35.152Z,96741.75
2023-01-18T10:56:03.772Z,96747.25
2023-01-18T10:58:34.089Z,96748.63
2023-01-18T11:01:02.187Z,96751.59
2023-01-18T11:03:45.316Z,96758.41
2023-01-18T11:06:12.240Z,96757.41
2023-01-18T11:08:38.813Z,96769.31
2023-01-18T11:11:07.309Z,96767.38
2023-01-18T11:13:41.517Z,96764.97
2023-01-18T11:16:16.033Z,96768.31
2023-01-18T11:18:59.779Z,96775.03
2023-01-18T11:21:33.747Z,96767.09
2023-01-18T11:24:07.692Z,96767.59
2023-01-18T11:26:34.609Z,96766.63
2023-01-18T11:29:06.825Z,96768.78
2023-01-18T11:31:45.684Z,96774.31
2023-01-18T11:34:38.947Z,96775.16
2023-01-18T11:37:36.330Z,96774.47
2023-01-18T11:40:27.766Z,96778.00
2023-01-18T11:43:09.296Z,96790.41
2023-01-18T11:45:48.204Z,96792.81
2023-01-18T11:48:29.929Z,96791.09
2023-01-18T11:51:08.459Z,96792.13
2023-01-18T11:53:41.643Z,96805.00
2023-01-18T11:56:24.562Z,96801.50
2023-01-18T11:58:51.222Z,96814.59
2023-01-18T12:01:30.508Z,96818.25
2023-01-18T12:04:04.123Z,96818.25
2023-01-18T12:07:03.258Z,96821.72
2023-01-18T12:10:17.125Z,96821.16
2023-01-18T12:12:52.674Z,96824.13
2023-01-18T12:15:35.853Z,96821.72
2023-01-18T12:18:20.695Z,96823.16
2023-01-18T12:21:13.442Z,96814.88
2023-01-18T12:23:58.572Z,96824.28
2023-01-18T12:26:34.165Z,96825.69
2023-01-18T12:29:00.734Z,96826.91
2023-01-18T12:31:45.466Z,96837.41
2023-01-18T12:34:23.548Z,96840.06
2023-01-18T12:37:02.261Z,96853.97
2023-01-18T12:39:31.926Z,96850.81
2023-01-18T12:42:09.346Z,96862.47
2023-01-18T12:44:44.827Z,96861.91
2023-01-18T12:47:17.315Z,96867.28
2023-01-18T12:49:50.467Z,96874.09
2023-01-18T12:52:21.532Z,96882.19
2023-01-18T12:54:55.549Z,96884.91
2023-01-18T12:57:23.970Z,96891.84
2023-01-18T12:59:59.371Z,96890.13
2023-01-18T13:02:33.416Z,96894.31
2023-01-18T13:05:02.728Z,96891.31
2023-01-18T13:07:35.668Z,96902.25
2023-01-18T13:10:02.888Z,96904.41
2023-01-18T13:12:31.532Z,96905.22
2023-01-18T13:15:26.788Z,96914.53
2023-01-18T13:18:08.019Z,96915.81
2023-01-18T13:20:43.506Z,96919.69
2023-01-18T13:23:25.804Z,96922.75
2023-01-18T13:26:16.774Z,96927.22
2023-01-18T13:28:44.107Z,96933.94
2023-01-18T13:31:10.789Z,96936.91
2023-01-18T13:33:40.856Z,96945.28
2023-01-18T13:36:17.343Z,96946.00
2023-01-18T13:39:08.462Z,96947.84
2023-01-18T13:41:35.852Z,96954.06
2023-01-18T13:44:25.413Z,96950.66
2023-01-18T13:46:51.971Z,96954.88
2023-01-18T13:49:36.092Z,96960.03
2023-01-18T13:52:33.547Z,96973.19
2023-01-18T13:55:03.838Z,96968.13
2023-01-18T13:57:32.303Z,96977.72
2023-01-18T14:00:00.197Z,96981.69
2023-01-18T14:02:51.857Z,96994.66
2023-01-18T14:05:25.548Z,96993.81
2023-01-18T14:08:01.125Z,96999.66
2023-01-18T14:10:33.180Z,96998.69
2023-01-18T14:13:03.839Z,97000.81
2023-01-18T14:15:42.207Z,97010.22
2023-01-18T14:18:17.891Z,97005.63
2023-01-18T14:21:18.331Z,97017.41
2023-01-18T14:23:51.457Z,97023.88
2023-01-18T14:26:19.826Z,97032.88
2023-01-18T14:28:51.462Z,97028.28
2023-01-18T14:31:27.813Z,97036.22
2023-01-18T14:33:54.533Z,97043.13
2023-01-18T14:36:30.375Z,97042.34
2023-01-18T14:39:09.758Z,97048.16
2023-01-18T14:41:38.210Z,97050.06
2023-01-18T14:44:06.009Z,97060.25
2023-01-18T14:46:32.778Z,97062.19
2023-01-18T14:49:01.692Z,97064.31
2023-01-18T14:51:29.683Z,97069.59
2023-01-18T14:54:01.993Z,97074.34
2023-01-18T14:56:31.953Z,97079.47
2023-01-18T14:59:16.349Z,97092.41
2023-01-18T15:01:54.771Z,97090.31
2023-01-18T15:04:29.556Z,97101.56
2023-01-18T15:07:04.396Z,97100.44
2023-01-18T15:09:33.816Z,97110.66
2023-01-18T15:12:04.711Z,97112.31
2023-01-18T15:14:34.667Z,97123.97
2023-01-18T15:17:05.929Z,97120.81
2023-01-18T15:19:41.919Z,97125.13
2023-01-18T15:22:12.488Z,97130.53
2023-01-18T15:24:40.699Z,97136.25
2023-01-18T15:27:15.960Z,97147.94
2023-01-18T15:29:49.007Z,97151.09
2023-01-18T15:32:19.811Z,97157.00
2023-01-18T15:34:48.589Z,97168.53
2023-01-18T15:37:21.901Z,97167.88
2023-01-18T15:40:02.493Z,97178.59
2023-01-18T15:42:32.123Z,97182.63
2023-01-18T15:44:59.922Z,97194.03
2023-01-18T15:47:36.855Z,97189.28
2023-01-18T15:50:16.362Z,97194.72
2023-01-18T15:52:46.047Z,97199.91
2023-01-18T15:55:24.008Z,97200.44
2023-01-18T15:58:02.784Z,97200.72
2023-01-18T16:00:37.909Z,97212.56
2023-01-18T16:03:22.863Z,97214.47
2023-01-18T16:06:32.014Z,97212.56
2023-01-18T16:09:12.922Z,97224.91
2023-01-18T16:11:46.526Z,97223.13
2023-01-18T16:14:28.286Z,97225.78
2023-01-18T16:17:13.484Z,97224.94
2023-01-18T16:19:59.627Z,97237.44
2023-01-18T16:22:29.452Z,97242.47
2023-01-18T16:25:01.417Z,97243.84
2023-01-18T16:27:31.362Z,97252.88
2023-01-18T16:30:05.456Z,97258.44
2023-01-18T16:32:35.304Z,97255.94
2023-01-18T16:35:13.507Z,97265.81
2023-01-18T16:37:46.962Z,97270.44
2023-01-18T16:40:15.600Z,97272.78
2023-01-18T16:43:06.782Z,97277.38
2023-01-18T16:45:36.114Z,97272.66
2023-01-18T16:48:04.453Z,97282.09
2023-01-18T16:50:31.855Z,97284.31
2023-01-18T16:52:58.551Z,97295.19
2023-01-18T16:55:25.098Z,97294.03
2023-01-18T16:57:51.975Z,97298.66
2023-01-18T17:00:30.726Z,97303.78
2023-01-18T17:02:57.783Z,97311.59
2023-01-18T17:05:24.516Z,97314.53
2023-01-18T17:07:52.558Z,97316.84
2023-01-18T17:10:31.111Z,97313.53
2023-01-18T17:13:00.037Z,97323.56
2023-01-18T17:15:28.319Z,97328.00
2023-01-18T17:17:55.019Z,97330.09
2023-01-18T17:20:24.037Z,97344.00
2023-01-18T17:22:51.590Z,97341.09
2023-01-18T17:25:20.073Z,97338.31
2023-01-18T17:27:46.907Z,97351.69
2023-01-18T17:30:16.849Z,97360.69
2023-01-18T17:32:43.571Z,97357.50
2023-01-18T17:35:10.906Z,97371.41
2023-01-18T17:40:22.722Z,97375.19
2023-01-18T17:42:52.721Z,97373.66
2023-01-18T17:45:19.331Z,97381.31
2023-01-18T17:47:46.047Z,97381.69
2023-01-18T17:50:17.463Z,97386.19
2023-01-18T17:52:45.082Z,97392.03
2023-01-18T17:55:13.153Z,97388.66
2023-01-18T17:57:40.779Z,97402.84
2023-01-18T18:00:09.280Z,97405.88
2023-01-18T18:02:35.911Z,97401.63
2023-01-18T18:05:02.979Z,97401.19
2023-01-18T18:07:30.437Z,97409.13
2023-01-18T18:10:00.866Z,97415.78
2023-01-18T18:12:28.568Z,97420.09
2023-01-18T18:14:55.974Z,97417.13
2023-01-18T18:17:27.408Z,97420.31
2023-01-18T18:19:54.079Z,97418.94
2023-01-18T18:22:21.473Z,97431.31
2023-01-18T18:24:49.107Z,97445.00
2023-01-18T18:27:16.873Z,97440.09
2023-01-18T18:29:43.999Z,97440.09
2023-01-18T18:32:11.259Z,97447.19
2023-01-18T18:34:37.959Z,97454.91
2023-01-18T18:37:05.732Z,97459.91
2023-01-18T18:39:33.770Z,97463.19
2023-01-18T18:42:01.452Z,97467.28
2023-01-18T18:44:28.567Z,97479.63
2023-01-18T18:46:55.837Z,97480.34
2023-01-18T18:49:23.228Z,97493.41
2023-01-18T18:51:50.343Z,97492.81
2023-01-18T18:54:17.633Z,97506.75
2023-01-18T18:56:44.942Z,97506.63
2023-01-18T18:59:12.293Z,97514.09
2023-01-18T19:01:39.768Z,97520.22
2023-01-18T19:04:07.029Z,97517.06
2023-01-18T19:06:35.724Z,97525.50
2023-01-18T19:09:03.229Z,97528.47
2023-01-18T19:11:30.564Z,97537.63
2023-01-18T19:13:57.847Z,97545.22
2023-01-18T19:16:25.314Z,97548.31
2023-01-18T19:18:53.097Z,97550.84
2023-01-18T19:21:20.630Z,97560.81
2023-01-18T19:23:47.972Z,97564.22
2023-01-18T19:26:16.121Z,97562.63
2023-01-18T19:28:43.655Z,97572.34
2023-01-18T19:31:12.021Z,97572.22
2023-01-18T19:33:39.332Z,97575.75
2023-01-18T19:36:16.430Z,97572.97
2023-01-18T19:38:48.051Z,97582.59
2023-01-18T19:41:18.592Z,97590.00
2023-01-18T19:43:49.780Z,97590.72
2023-01-18T19:46:18.260Z,97603.22
2023-01-18T19:48:44.920Z,97609.84
2023-01-18T19:51:22.896Z,97609.84
2023-01-18T19:53:52.601Z,97620.16
2023-01-18T19:56:19.315Z,97630.63
2023-01-18T19:58:46.058Z,97637.44
2023-01-18T20:01:30.213Z,97638.94
2023-01-18T20:04:01.655Z,97642.63
2023-01-18T20:06:28.255Z,97650.34
2023-01-18T20:08:55.004Z,97648.09
2023-01-18T20:11:21.644Z,97651.69
2023-01-18T20:13:49.774Z,97662.81
2023-01-18T20:16:20.168Z,97663.66
2023-01-18T20:18:48.634Z,97668.03
2023-01-18T20:21:17.922Z,97672.94
2023-01-18T20:23:45.463Z,97674.34
2023-01-18T20:26:13.219Z,97679.97
2023-01-18T20:28:41.316Z,97685.75
2023-01-18T20:31:10.129Z,97692.84
2023-01-18T20:33:38.249Z,97691.97
2023-01-18T20:36:06.454Z,97698.22
2023-01-18T20:38:33.733Z,97699.94
2023-01-18T20:41:01.229Z,97706.66
2023-01-18T20:43:28.092Z,97704.13
2023-01-18T20:46:08.500Z,97707.50
2023-01-18T20:48:36.408Z,97710.38
2023-01-18T20:51:04.501Z,97715.41
2023-01-18T20:53:32.345Z,97711.78
2023-01-18T20:56:08.339Z,97722.47
2023-01-18T20:58:39.317Z,97713.13
2023-01-18T21:01:08.314Z,97721.31
2023-01-18T21:03:34.982Z,97716.50
2023-01-18T21:06:01.579Z,97721.41
2023-01-18T21:08:28.207Z,97729.97
2023-01-18T21:10:54.771Z,97731.13
2023-01-18T21:13:21.906Z,97728.25
2023-01-18T21:15:54.761Z,97738.06
2023-01-18T21:18:21.695Z,97739.78
2023-01-18T21:20:55.171Z,97740.34
2023-01-18T21:23:25.865Z,97735.19
2023-01-18T21:25:58.195Z,97735.72
2023-01-18T21:28:26.146Z,97738.09
2023-01-18T21:30:55.106Z,97735.75
2023-01-18T21:33:25.604Z,97742.00
2023-01-18T21:35:55.121Z,97745.69
2023-01-18T21:38:23.180Z,97748.09
2023-01-18T21:40:49.945Z,97753.88
2023-01-18T21:43:37.669Z,97744.16
2023-01-18T21:46:07.224Z,97750.28
2023-01-18T21:48:33.930Z,97751.59
2023-01-18T21:51:21.087Z,97748.66
2023-01-18T21:54:06.670Z,97755.69
2023-01-18T21:56:33.703Z,97753.28
2023-01-18T21:59:01.093Z,97751.56
2023-01-18T22:01:34.432Z,97749.03
2023-01-18T22:04:21.197Z,97753.84
2023-01-18T22:06:48.700Z,97765.97
2023-01-18T22:09:15.600Z,97765.47
2023-01-18T22:11:42.493Z,97764.16
2023-01-18T22:14:09.835Z,97775.38
2023-01-18T22:16:37.150Z,97779.59
2023-01-18T22:19:04.980Z,97778.28
2023-01-18T22:21:32.678Z,97781.31
2023-01-18T22:23:59.771Z,97785.63
2023-01-18T22:26:28.835Z,97787.78
2023-01-18T22:28:55.960Z,97789.03
2023-01-18T22:31:22.935Z,97783.50
2023-01-18T22:33:49.609Z,97784.53
2023-01-18T22:36:16.815Z,97784.69
2023-01-18T22:38:45.369Z,97787.94
2023-01-18T22:41:15.466Z,97792.22
2023-01-18T22:43:44.025Z,97793.47
2023-01-18T22:46:13.945Z,97796.69
2023-01-18T22:48:41.478Z,97803.31
2023-01-18T22:51:11.149Z,97805.13
2023-01-18T22:53:38.771Z,97799.88
2023-01-18T22:56:08.214Z,97806.28
2023-01-18T22:58:35.438Z,97811.44
2023-01-18T23:01:02.462Z,97807.66
2023-01-18T23:03:30.585Z,97815.31
2023-01-18T23:05:59.007Z,97813.66
2023-01-18T23:08:38.302Z,97812.38
2023-01-18T23:11:05.567Z,97810.78
2023-01-18T23:13:32.214Z,97819.56
2023-01-18T23:16:17.376Z,97817.97
2023-01-18T23:18:44.042Z,97824.81
2023-01-18T23:21:10.699Z,97834.47
2023-01-18T23:23:37.286Z,97835.72
2023-01-18T23:26:04.019Z,97849.63
2023-01-18T23:28:43.002Z,97844.81
2023-01-18T23:31:17.830Z,97849.63
2023-01-18T23:33:44.664Z,97856.47
2023-01-18T23:36:12.475Z,97863.66
2023-01-18T23:38:58.192Z,97852.06
2023-01-18T23:41:43.549Z,97869.84
2023-01-18T23:44:28.762Z,97867.75
2023-01-18T23:47:13.837Z,97874.59
2023-01-18T23:50:00.143Z,97884.38
2023-01-18T23:52:45.538Z,97890.78
2023-01-18T23:55:12.119Z,97892.31
2023-01-18T23:57:39.109Z,97887.28
